Terminal Aerodrome Forecast
Issued by NWS

Home | Current Version | Previous Version | Text Only | Print | Product List | Glossary On
Versions: 1 2 3 4 5 6 7 8 9 10 11 12 13 14
000
FTAK31 PAJN 301138
TAFAYA
TAF
PAYA 301138Z 3012/3112 09005KT 5SM -SHRA BKN015 OVC025
     FM302000 07005KT P6SM VCSH SCT025 OVC035
     FM310300 VRB05KT P6SM BKN035 OVC060
     FM310600 00000KT P6SM SCT050 BKN100
     FM310900 00000KT P6SM BCFG FEW005 SCT100
      AMD LTD TO CLD AND WIND 3101/3110=

USA.gov is the U.S. government's official web portal to all federal, state and local government web resources and services.